Time;durP1;ratioP1;P1;durP2;ratioP2;P2;SDS_P1;SDS_P2;PMS_P1;PMS_P2;Temp;Humidity;BMP_temperature;BMP_pressure;BME280_temperature;BME280_humidity;BME280_pressure;Samples;Min_cycle;Max_cycle;Signal;HPM_P1;HPM_P2
2022/02/15 00:00:21;;;;;;;948.70;884.25;;;;;;;8.38;51.29;100168.44;693729;28;22399;-68
2022/02/15 00:00:42;;;;;;;943.72;879.53;;;;;;;8.40;50.81;100167.28;693129;28;46426;-68
2022/02/15 00:01:05;;;;;;;943.75;879.53;;;;;;;8.41;51.20;100168.94;693115;28;22367;-68
2022/02/15 00:01:26;;;;;;;952.88;888.38;;;;;;;8.40;50.99;100163.72;690689;28;69421;-68
2022/02/15 00:01:47;;;;;;;944.28;880.08;;;;;;;8.41;51.20;100174.31;693670;28;21248;-68
2022/02/15 00:02:08;;;;;;;970.15;904.47;;;;;;;8.43;50.95;100166.06;693541;28;22391;-69
2022/02/15 00:02:30;;;;;;;1011.63;943.97;;;;;;;8.44;51.25;100170.47;694514;28;6106;-68
2022/02/15 00:02:51;;;;;;;1016.50;948.63;;;;;;;8.45;50.90;100166.78;691137;28;44163;-68
2022/02/15 00:03:12;;;;;;;1023.28;955.03;;;;;;;8.45;50.87;100172.16;692239;28;23642;-68
2022/02/15 00:03:34;;;;;;;1025.45;956.95;;;;;;;8.44;50.82;100165.91;693121;28;22235;-68
2022/02/15 00:03:55;;;;;;;1030.88;962.17;;;;;;;8.44;51.06;100167.78;692115;28;43937;-68
2022/02/15 00:04:16;;;;;;;997.88;930.85;;;;;;;8.44;50.99;100167.78;693712;28;22400;-68
2022/02/15 00:04:37;;;;;;;937.55;873.03;;;;;;;8.43;50.94;100169.63;694043;28;22438;-70
2022/02/15 00:04:59;;;;;;;915.42;851.95;;;;;;;8.43;50.92;100169.63;693676;28;23397;-68
2022/02/15 00:05:20;;;;;;;985.67;919.00;;;;;;;8.45;50.85;100172.16;692801;28;44203;-68
2022/02/15 00:05:41;;;;;;;1022.92;954.53;;;;;;;8.43;50.83;100166.94;692828;28;46142;-68
2022/02/15 00:06:02;;;;;;;1032.03;963.17;;;;;;;8.43;51.06;100169.63;693384;28;23503;-68
2022/02/15 00:06:24;;;;;;;1024.30;955.83;;;;;;;8.44;50.92;100175.84;692686;28;21540;-68
2022/02/15 00:06:46;;;;;;;1022.45;954.10;;;;;;;8.45;51.01;100178.38;692904;28;44332;-69
2022/02/15 00:07:07;;;;;;;1027.80;959.10;;;;;;;8.44;50.82;100173.97;693687;28;23498;-68
2022/02/15 00:07:29;;;;;;;1036.28;967.10;;;;;;;8.42;51.08;100176.00;692939;28;46303;-68
2022/02/15 00:07:51;;;;;;;1036.45;967.25;;;;;;;8.43;50.83;100172.31;693437;28;22427;-68
2022/02/15 00:08:12;;;;;;;1031.07;962.13;;;;;;;8.43;50.90;100168.75;692831;28;45214;-68
2022/02/15 00:08:33;;;;;;;1032.22;963.33;;;;;;;8.42;51.09;100175.16;693812;28;22539;-68
2022/02/15 00:08:55;;;;;;;1043.75;974.33;;;;;;;8.44;50.99;100170.47;693024;28;44227;-68
2022/02/15 00:09:16;;;;;;;1040.90;971.55;;;;;;;8.44;51.12;100170.47;692969;28;44382;-68
2022/02/15 00:09:37;;;;;;;1045.55;975.97;;;;;;;8.44;51.25;100170.47;693933;28;23391;-68
2022/02/15 00:09:58;;;;;;;1038.25;969.00;;;;;;;8.44;50.99;100170.47;693656;28;21208;-68
2022/02/15 00:10:19;;;;;;;1043.20;973.92;;;;;;;8.45;51.01;100177.53;693701;28;22405;-68
2022/02/15 00:10:41;;;;;;;1042.55;973.22;;;;;;;8.45;50.92;100174.84;694043;28;24424;-68
2022/02/15 00:11:02;;;;;;;1042.28;972.88;;;;;;;8.45;50.99;100166.78;692685;28;46290;-68
2022/02/15 00:11:23;;;;;;;1047.00;977.45;;;;;;;8.46;51.14;100165.75;692709;28;22404;-68
2022/02/15 00:11:44;;;;;;;1048.95;979.25;;;;;;;8.46;51.00;100168.44;693650;28;23460;-68
2022/02/15 00:12:09;;;;;;;1056.05;986.10;;;;;;;8.46;51.09;100168.44;692242;28;22391;-68
2022/02/15 00:12:30;;;;;;;1058.63;988.53;;;;;;;8.46;51.09;100168.44;690038;28;115842;-69
2022/02/15 00:12:51;;;;;;;1048.65;978.92;;;;;;;8.45;51.28;100164.91;693626;28;21485;-69
2022/02/15 00:13:13;;;;;;;1055.07;985.15;;;;;;;8.46;51.25;100168.44;693680;28;24643;-68
2022/02/15 00:13:35;;;;;;;1060.20;990.08;;;;;;;8.46;51.09;100168.44;693052;28;44333;-68
2022/02/15 00:13:56;;;;;;;1060.53;990.38;;;;;;;8.48;51.25;100169.09;692221;28;47341;-68
2022/02/15 00:14:17;;;;;;;1050.95;981.15;;;;;;;8.47;51.03;100176.31;693572;28;22235;-68
2022/02/15 00:14:38;;;;;;;1054.45;984.50;;;;;;;8.47;51.30;100175.50;693819;28;22392;-68
2022/02/15 00:15:00;;;;;;;1053.03;983.15;;;;;;;8.47;51.10;100168.25;693441;28;22224;-68
2022/02/15 00:15:22;;;;;;;1048.93;979.22;;;;;;;8.48;51.15;100161.88;692053;28;67578;-69
2022/02/15 00:15:43;;;;;;;1055.38;985.47;;;;;;;8.49;51.26;100170.75;693139;28;20965;-68
2022/02/15 00:16:05;;;;;;;1053.60;983.63;;;;;;;8.50;51.18;100166.25;694093;28;1275;-68
2022/02/15 00:16:27;;;;;;;1056.10;986.10;;;;;;;8.51;51.05;100162.50;692939;28;21758;-68
2022/02/15 00:16:50;;;;;;;1054.18;984.25;;;;;;;8.52;51.28;100166.88;692539;28;45238;-68
2022/02/15 00:17:11;;;;;;;1051.97;982.17;;;;;;;8.52;51.27;100166.88;691688;28;69432;-68
2022/02/15 00:17:32;;;;;;;1050.50;980.80;;;;;;;8.53;51.16;100168.56;693246;28;22456;-68
2022/02/15 00:17:54;;;;;;;1053.10;983.20;;;;;;;8.54;51.12;100171.09;693361;28;22365;-68
2022/02/15 00:18:15;;;;;;;1049.05;979.33;;;;;;;8.54;51.07;100165.72;691449;28;45215;-68
2022/02/15 00:18:36;;;;;;;1043.53;974.00;;;;;;;8.56;51.14;100168.22;690631;28;19795;-68
2022/02/15 00:18:58;;;;;;;1046.18;976.63;;;;;;;8.56;51.35;100169.06;690773;28;22326;-68
2022/02/15 00:19:19;;;;;;;1046.18;976.60;;;;;;;8.58;51.23;100166.19;690744;28;22468;-68
2022/02/15 00:19:41;;;;;;;1043.15;973.67;;;;;;;8.58;51.30;100166.19;689799;28;46267;-69
2022/02/15 00:20:03;;;;;;;1046.40;976.85;;;;;;;8.59;51.08;100168.69;690886;28;23430;-68
2022/02/15 00:20:24;;;;;;;1045.78;976.33;;;;;;;8.59;51.04;100168.69;689642;28;45245;-68
2022/02/15 00:20:46;;;;;;;1047.68;978.10;;;;;;;8.60;51.09;100164.13;692752;28;46281;-68
2022/02/15 00:21:07;;;;;;;1047.15;977.58;;;;;;;8.61;51.22;100168.53;692798;28;46323;-68
2022/02/15 00:21:28;;;;;;;1049.78;980.08;;;;;;;8.61;51.28;100163.97;692906;28;21533;-68
2022/02/15 00:21:50;;;;;;;1051.70;981.90;;;;;;;8.61;51.22;100161.28;693694;28;23468;-68
2022/02/15 00:22:11;;;;;;;1057.57;987.53;;;;;;;8.60;51.21;100167.66;692711;28;46297;-68
2022/02/15 00:22:33;;;;;;;1059.32;989.13;;;;;;;8.62;50.95;100167.47;693664;28;23408;-68
2022/02/15 00:22:54;;;;;;;1056.25;986.15;;;;;;;8.61;50.99;100165.81;693511;28;22377;-68
2022/02/15 00:23:16;;;;;;;1060.45;990.25;;;;;;;8.62;50.91;100167.47;693567;28;21911;-69
2022/02/15 00:23:37;;;;;;;1060.45;990.25;;;;;;;8.63;50.93;100169.16;692361;28;46277;-69
2022/02/15 00:23:58;;;;;;;1054.93;984.90;;;;;;;8.61;50.94;100169.34;693344;28;22201;-68
2022/02/15 00:24:20;;;;;;;1050.43;980.53;;;;;;;8.61;51.36;100169.34;693681;28;21615;-68
2022/02/15 00:24:41;;;;;;;1050.95;981.05;;;;;;;8.62;51.28;100172.88;691245;28;69610;-69
2022/02/15 00:25:03;;;;;;;1051.65;981.78;;;;;;;8.62;51.27;100168.34;693551;28;23516;-68
2022/02/15 00:25:25;;;;;;;1052.30;982.40;;;;;;;8.62;51.03;100162.97;692707;28;46284;-68
2022/02/15 00:25:47;;;;;;;1052.80;982.80;;;;;;;8.63;51.21;100171.84;694117;28;989;-68
2022/02/15 00:26:08;;;;;;;1051.05;981.15;;;;;;;8.63;51.31;100163.78;691270;28;45176;-69
2022/02/15 00:26:29;;;;;;;1052.82;982.88;;;;;;;8.63;51.00;100172.69;691874;28;22281;-68
2022/02/15 00:26:50;;;;;;;1055.55;985.55;;;;;;;8.63;51.04;100166.47;690138;28;21501;-69
2022/02/15 00:27:12;;;;;;;1054.70;984.70;;;;;;;8.63;51.20;100169.16;690012;28;22181;-70
2022/02/15 00:27:34;;;;;;;1049.55;979.75;;;;;;;8.63;51.25;100163.78;689446;28;69422;-68
2022/02/15 00:27:55;;;;;;;1045.30;975.72;;;;;;;8.64;51.14;100166.28;686440;28;46406;-68
2022/02/15 00:28:16;;;;;;;1047.28;977.58;;;;;;;8.64;51.08;100160.91;686402;28;22400;-68
2022/02/15 00:28:40;;;;;;;1051.15;981.25;;;;;;;8.62;51.16;100160.25;683247;28;69393;-68
2022/02/15 00:29:02;;;;;;;1046.78;977.10;;;;;;;8.63;51.24;100161.91;684399;28;45286;-69
2022/02/15 00:29:26;;;;;;;1052.30;982.40;;;;;;;8.64;51.18;100165.47;684805;28;36244;-68
2022/02/15 00:29:48;;;;;;;1051.03;981.17;;;;;;;8.64;51.10;100168.16;687066;28;21200;-68
2022/02/15 00:30:10;;;;;;;1046.57;976.90;;;;;;;8.64;51.07;100160.09;685845;28;22377;-69
2022/02/15 00:30:32;;;;;;;1054.28;984.28;;;;;;;8.64;51.17;100166.28;685606;28;69357;-69
2022/02/15 00:30:54;;;;;;;1057.70;987.55;;;;;;;8.64;51.33;100160.91;687932;28;45261;-68
2022/02/15 00:31:15;;;;;;;1054.18;984.17;;;;;;;8.64;51.38;100165.47;686352;28;21291;-69
2022/02/15 00:31:36;;;;;;;1057.50;987.40;;;;;;;8.64;51.36;100166.28;688011;28;23126;-69
2022/02/15 00:31:58;;;;;;;1059.88;989.67;;;;;;;8.64;51.31;100166.28;688712;28;23465;-69
2022/02/15 00:32:19;;;;;;;1057.43;987.22;;;;;;;8.64;51.45;100160.09;690549;28;46264;-68
2022/02/15 00:32:41;;;;;;;1059.15;988.92;;;;;;;8.63;51.19;100167.31;688544;28;23439;-69
2022/02/15 00:33:05;;;;;;;1057.80;987.60;;;;;;;8.63;51.44;100164.63;686047;28;15805;-69
2022/02/15 00:33:26;;;;;;;1050.80;980.95;;;;;;;8.64;51.19;100169.00;685775;28;46393;-68
2022/02/15 00:33:47;;;;;;;1050.70;980.90;;;;;;;8.63;51.27;100167.31;685284;28;45205;-68
2022/02/15 00:34:09;;;;;;;1053.82;983.85;;;;;;;8.64;51.52;100170.84;687234;28;21486;-68
2022/02/15 00:34:33;;;;;;;1045.32;975.70;;;;;;;8.65;51.27;100170.69;688536;28;44328;-68
2022/02/15 00:34:54;;;;;;;1046.45;976.78;;;;;;;8.64;51.41;100163.59;686852;28;69539;-68
2022/02/15 00:35:15;;;;;;;1070.82;999.45;;;;;;;8.64;51.53;100169.00;690602;28;23493;-68
2022/02/15 00:35:38;;;;;;;1061.10;990.60;;;;;;;8.65;51.31;100161.75;690817;28;46266;-69
2022/02/15 00:35:59;;;;;;;1055.90;985.72;;;;;;;8.65;51.23;100167.13;688229;28;69029;-69
2022/02/15 00:36:20;;;;;;;1057.45;987.35;;;;;;;8.65;51.35;100169.81;688889;28;21571;-68
2022/02/15 00:36:42;;;;;;;1056.55;986.45;;;;;;;8.64;51.63;100166.28;690846;28;22393;-69
2022/02/15 00:37:03;;;;;;;1059.82;989.63;;;;;;;8.64;51.53;100163.59;690643;28;22411;-69
2022/02/15 00:37:25;;;;;;;1057.28;987.17;;;;;;;8.65;51.53;100161.75;686359;28;45125;-68
2022/02/15 00:37:47;;;;;;;1057.20;987.10;;;;;;;8.64;51.63;100163.59;685672;28;46843;-68
2022/02/15 00:38:08;;;;;;;1057.18;987.08;;;;;;;8.65;51.41;100165.28;689342;28;22555;-68
2022/02/15 00:38:29;;;;;;;1055.43;985.42;;;;;;;8.64;51.62;100169.00;686519;28;21262;-69
2022/02/15 00:38:51;;;;;;;1052.10;982.22;;;;;;;8.63;51.66;100161.91;686680;28;22411;-69
2022/02/15 00:39:12;;;;;;;1052.70;982.80;;;;;;;8.62;51.63;100149.50;687541;28;45214;-69
2022/02/15 00:39:33;;;;;;;1051.32;981.55;;;;;;;8.63;51.53;100164.63;690604;28;46300;-68
2022/02/15 00:39:55;;;;;;;1053.72;983.80;;;;;;;8.63;51.48;100161.09;692554;28;46767;-69
2022/02/15 00:40:18;;;;;;;1054.38;984.40;;;;;;;8.63;51.50;100164.63;692609;28;22391;-68
2022/02/15 00:40:39;;;;;;;1050.93;981.13;;;;;;;8.64;51.58;100168.16;689868;28;46387;-68
2022/02/15 00:41:00;;;;;;;1051.43;981.45;;;;;;;8.63;51.82;100172.69;690401;28;22413;-68
2022/02/15 00:41:21;;;;;;;1055.38;985.38;;;;;;;8.62;51.82;100171.03;689514;28;23444;-69
2022/02/15 00:41:43;;;;;;;1054.45;984.45;;;;;;;8.63;51.85;100166.47;690462;28;23409;-69
2022/02/15 00:42:04;;;;;;;1053.20;983.28;;;;;;;8.64;51.76;100170.84;689007;28;46545;-68
2022/02/15 00:42:27;;;;;;;1055.78;985.70;;;;;;;8.63;51.77;100167.31;688266;28;69369;-69
2022/02/15 00:42:48;;;;;;;1057.90;987.70;;;;;;;8.64;51.89;100171.69;687090;28;44420;-69
2022/02/15 00:43:10;;;;;;;1058.43;988.22;;;;;;;8.64;51.65;100166.28;687834;28;21484;-69
2022/02/15 00:43:31;;;;;;;1054.43;984.35;;;;;;;8.65;51.67;100164.44;686957;28;46144;-68
2022/02/15 00:43:53;;;;;;;1055.07;985.05;;;;;;;8.65;51.80;100161.75;688300;28;21501;-69
2022/02/15 00:44:14;;;;;;;1056.43;986.30;;;;;;;8.66;51.87;100164.25;690627;28;23451;-69
2022/02/15 00:44:35;;;;;;;1058.25;988.05;;;;;;;8.65;51.86;100167.97;687932;28;45065;-69
2022/02/15 00:44:57;;;;;;;1052.35;982.35;;;;;;;8.66;51.86;100164.25;686141;28;23553;-69
2022/02/15 00:45:18;;;;;;;1050.50;980.60;;;;;;;8.66;51.90;100166.13;685828;28;46297;-69
2022/02/15 00:45:39;;;;;;;1054.80;984.78;;;;;;;8.65;51.99;100161.75;689026;28;21577;-69
2022/02/15 00:46:01;;;;;;;1055.82;985.72;;;;;;;8.65;51.87;100165.28;688803;28;23495;-69
2022/02/15 00:46:23;;;;;;;1056.13;986.05;;;;;;;8.66;52.00;100168.81;689005;28;22409;-69
2022/02/15 00:46:46;;;;;;;1052.53;982.53;;;;;;;8.64;51.98;100169.00;685676;28;115747;-69
2022/02/15 00:47:07;;;;;;;1055.53;985.42;;;;;;;8.65;52.01;100167.13;690525;28;22361;-69
2022/02/15 00:47:28;;;;;;;1054.68;984.67;;;;;;;8.65;51.90;100167.97;690895;28;21288;-69
2022/02/15 00:47:50;;;;;;;1055.07;985.03;;;;;;;8.67;51.84;100167.81;687220;28;23467;-69
2022/02/15 00:48:12;;;;;;;1049.25;979.42;;;;;;;8.67;52.06;100167.81;683318;28;68334;-69
2022/02/15 00:48:33;;;;;;;1047.53;977.72;;;;;;;8.67;51.76;100173.19;685097;28;22366;-69
2022/02/15 00:48:54;;;;;;;1048.05;978.20;;;;;;;8.68;51.77;100165.94;685760;28;21525;-70
2022/02/15 00:49:17;;;;;;;1038.88;969.47;;;;;;;8.67;51.85;100162.41;687163;28;46461;-69
2022/02/15 00:49:38;;;;;;;1048.45;978.65;;;;;;;8.67;51.88;100165.13;688241;28;45200;-69
2022/02/15 00:49:59;;;;;;;1052.22;982.25;;;;;;;8.66;52.10;100166.94;687957;28;23726;-69
2022/02/15 00:50:21;;;;;;;1054.47;984.45;;;;;;;8.66;51.81;100166.94;690781;28;22379;-69
2022/02/15 00:50:43;;;;;;;1054.90;984.80;;;;;;;8.66;52.16;100168.81;690921;28;22397;-69
2022/02/15 00:51:04;;;;;;;1061.25;990.83;;;;;;;8.66;52.08;100169.63;689512;28;46297;-69
2022/02/15 00:51:25;;;;;;;1056.57;986.47;;;;;;;8.66;51.92;100169.63;689954;28;23450;-69
2022/02/15 00:51:46;;;;;;;1061.40;991.10;;;;;;;8.67;52.18;100167.81;690009;28;45364;-69
2022/02/15 00:52:08;;;;;;;1062.97;992.47;;;;;;;8.66;52.17;100166.94;689938;28;21399;-69
2022/02/15 00:52:29;;;;;;;1059.57;989.17;;;;;;;8.69;52.04;100164.94;689415;28;45222;-69
2022/02/15 00:52:50;;;;;;;1059.57;989.22;;;;;;;8.69;52.15;100163.06;687953;28;22376;-69
2022/02/15 00:53:11;;;;;;;1054.45;984.35;;;;;;;8.69;52.18;100159.56;687669;28;22172;-69
2022/02/15 00:53:33;;;;;;;1056.95;986.75;;;;;;;8.71;52.21;100170.97;685633;28;23459;-69
2022/02/15 00:53:54;;;;;;;1054.32;984.15;;;;;;;8.69;52.09;100162.25;684432;28;46303;-69
2022/02/15 00:54:16;;;;;;;1056.38;986.10;;;;;;;8.68;52.05;100163.25;687399;28;46368;-69
2022/02/15 00:54:37;;;;;;;1055.50;985.40;;;;;;;8.66;51.99;100158.88;690966;28;22395;-69
2022/02/15 00:54:59;;;;;;;1061.72;991.38;;;;;;;8.66;52.23;100161.56;687947;28;21473;-69
2022/02/15 00:55:20;;;;;;;1055.57;985.45;;;;;;;8.66;52.08;100164.25;689754;28;46395;-69
2022/02/15 00:55:42;;;;;;;1052.15;982.10;;;;;;;8.66;52.15;100160.75;690326;28;22387;-69
2022/02/15 00:56:04;;;;;;;1065.30;994.58;;;;;;;8.65;52.43;100162.59;689818;28;46362;-69
2022/02/15 00:56:26;;;;;;;1082.20;999.90;;;;;;;8.67;52.14;100165.13;688879;28;46351;-69
2022/02/15 00:56:47;;;;;;;1090.35;999.90;;;;;;;8.66;52.40;100169.63;690613;28;46266;-69
2022/02/15 00:57:10;;;;;;;1090.88;999.90;;;;;;;8.65;52.43;100169.81;689767;28;23846;-69
2022/02/15 00:57:33;;;;;;;1095.88;999.90;;;;;;;8.65;52.20;100167.13;688264;28;69252;-69
2022/02/15 00:57:54;;;;;;;1093.18;999.90;;;;;;;8.65;52.37;100170.69;689063;28;67467;-69
2022/02/15 00:58:15;;;;;;;1092.50;999.90;;;;;;;8.66;52.33;100163.44;690870;28;22391;-69
2022/02/15 00:58:37;;;;;;;1095.68;999.90;;;;;;;8.67;52.38;100167.81;689816;28;47589;-69
2022/02/15 00:58:59;;;;;;;1096.03;999.90;;;;;;;8.68;52.19;100172.16;691323;28;22444;-69
2022/02/15 00:59:20;;;;;;;1101.20;999.90;;;;;;;8.68;52.26;100171.31;690576;28;44271;-69
2022/02/15 00:59:41;;;;;;;1100.00;999.90;;;;;;;8.66;52.11;100164.25;689030;28;22344;-69
2022/02/15 01:00:13;;;;;;;1100.35;999.90;;;;;;;8.67;52.27;100167.81;687750;28;60204;-69
2022/02/15 01:00:34;;;;;;;1102.32;999.90;;;;;;;8.68;52.15;100164.06;683587;28;92245;-69
2022/02/15 01:00:55;;;;;;;1094.85;999.90;;;;;;;8.68;52.29;100165.94;685777;28;23759;-69
2022/02/15 01:01:17;;;;;;;1097.47;999.90;;;;;;;8.68;52.17;100166.78;684621;28;21634;-69
2022/02/15 01:01:39;;;;;;;1100.45;999.90;;;;;;;8.70;52.10;100174.66;682511;28;46436;-69
2022/02/15 01:02:00;;;;;;;1097.65;999.90;;;;;;;8.69;52.38;100162.25;684937;28;47324;-69
2022/02/15 01:02:21;;;;;;;1095.20;999.90;;;;;;;8.71;52.16;100170.97;686296;28;22409;-69
2022/02/15 01:02:45;;;;;;;1091.43;999.90;;;;;;;8.70;52.38;100163.91;687152;28;47776;-69
2022/02/15 01:03:06;;;;;;;1097.57;999.90;;;;;;;8.71;52.39;100163.72;685685;28;69400;-69
2022/02/15 01:03:27;;;;;;;1095.03;999.90;;;;;;;8.71;52.17;100165.59;688674;28;22403;-69
2022/02/15 01:03:48;;;;;;;1094.93;999.90;;;;;;;8.72;52.46;100168.09;687781;28;21512;-69
2022/02/15 01:04:10;;;;;;;1090.30;999.90;;;;;;;8.74;52.11;100162.53;687536;28;22383;-69
2022/02/15 01:04:31;;;;;;;1088.95;999.90;;;;;;;8.73;52.43;100167.09;687134;28;44376;-70
2022/02/15 01:04:52;;;;;;;1095.68;999.90;;;;;;;8.74;52.30;100173.31;687687;28;21518;-69
2022/02/15 01:05:13;;;;;;;1096.47;999.90;;;;;;;8.75;52.45;100177.69;687433;28;23449;-69
2022/02/15 01:05:35;;;;;;;1094.82;999.90;;;;;;;8.74;52.13;100166.06;688119;28;22452;-69
2022/02/15 01:05:57;;;;;;;1096.43;999.90;;;;;;;8.75;52.50;100169.59;685874;28;46740;-69
2022/02/15 01:06:18;;;;;;;1092.78;999.90;;;;;;;8.76;52.26;100177.50;686446;28;44404;-69
2022/02/15 01:06:41;;;;;;;1098.05;999.90;;;;;;;8.76;52.15;100176.66;686569;28;46416;-69
2022/02/15 01:07:03;;;;;;;1093.75;999.90;;;;;;;8.77;52.26;100170.25;686587;28;45190;-69
2022/02/15 01:07:24;;;;;;;1092.72;999.90;;;;;;;8.75;52.54;100167.75;686585;28;47142;-69
2022/02/15 01:07:45;;;;;;;1097.57;999.90;;;;;;;8.75;52.55;100169.59;686429;28;24726;-69
2022/02/15 01:08:08;;;;;;;1095.57;999.90;;;;;;;8.76;52.31;100166.75;687804;28;21510;-69
2022/02/15 01:08:29;;;;;;;1096.95;999.90;;;;;;;8.75;52.58;100175.81;686535;28;69373;-69
2022/02/15 01:08:50;;;;;;;1098.22;999.90;;;;;;;8.76;52.52;100173.94;687991;28;21514;-69
2022/02/15 01:09:11;;;;;;;1101.70;999.90;;;;;;;8.75;52.32;100178.50;684896;28;22026;-69
2022/02/15 01:09:33;;;;;;;1098.03;999.90;;;;;;;8.75;52.63;100172.31;685970;28;22420;-69
2022/02/15 01:09:55;;;;;;;1093.75;999.90;;;;;;;8.75;52.73;100172.31;685453;28;67498;-69
2022/02/15 01:10:20;;;;;;;1094.10;999.90;;;;;;;8.73;52.69;100169.78;687101;28;46337;-69
2022/02/15 01:10:42;;;;;;;1090.18;999.90;;;;;;;8.75;52.57;100175.00;685739;28;91238;-69
2022/02/15 01:11:03;;;;;;;1093.68;999.90;;;;;;;8.75;52.72;100166.91;687141;28;46239;-69
2022/02/15 01:11:25;;;;;;;1093.97;999.90;;;;;;;8.75;52.42;100173.13;684709;28;22397;-69
2022/02/15 01:11:46;;;;;;;1096.18;999.90;;;;;;;8.76;52.72;100179.34;683712;28;46619;-69
2022/02/15 01:12:09;;;;;;;1101.53;999.90;;;;;;;8.76;52.56;100173.94;683251;28;22606;-69
2022/02/15 01:12:32;;;;;;;1099.43;999.90;;;;;;;8.75;52.55;100177.69;681396;28;92204;-69
2022/02/15 01:12:53;;;;;;;1098.95;999.90;;;;;;;8.74;52.64;100176.81;682455;28;44903;-69
2022/02/15 01:13:14;;;;;;;1099.10;999.90;;;;;;;8.76;52.67;100176.66;684440;28;21555;-69
2022/02/15 01:13:37;;;;;;;1097.40;999.90;;;;;;;8.75;52.67;100181.22;686605;28;21347;-69
2022/02/15 01:14:00;;;;;;;1099.03;999.90;;;;;;;8.75;52.84;100178.50;681467;28;114124;-69
2022/02/15 01:14:21;;;;;;;1095.40;999.90;;;;;;;8.74;52.76;100171.44;682370;28;23542;-69
2022/02/15 01:14:42;;;;;;;1097.78;999.90;;;;;;;8.74;52.83;100173.31;683915;28;23504;-69
2022/02/15 01:15:07;;;;;;;1097.53;999.90;;;;;;;8.75;52.79;100175.81;684890;28;23486;-69
2022/02/15 01:15:28;;;;;;;1099.70;999.90;;;;;;;8.76;52.87;100177.50;678956;28;115133;-69
2022/02/15 01:15:49;;;;;;;1095.85;999.90;;;;;;;8.76;52.73;100172.13;679568;28;21516;-69
2022/02/15 01:16:11;;;;;;;1095.57;999.90;;;;;;;8.76;52.97;100177.50;682645;28;22198;-69
2022/02/15 01:16:33;;;;;;;1095.18;999.90;;;;;;;8.77;52.86;100172.94;682731;28;45318;-69
2022/02/15 01:16:54;;;;;;;1094.63;999.90;;;;;;;8.76;52.74;100174.81;685030;28;46311;-69
2022/02/15 01:17:15;;;;;;;1093.00;999.90;;;;;;;8.76;52.94;100177.50;684406;28;22464;-69
2022/02/15 01:17:38;;;;;;;1094.85;999.90;;;;;;;8.77;52.88;100176.47;684251;28;67466;-69
2022/02/15 01:18:00;;;;;;;1091.28;999.90;;;;;;;8.75;52.86;100175.81;687861;28;22391;-69
2022/02/15 01:18:25;;;;;;;1090.57;999.90;;;;;;;8.75;52.85;100178.50;683674;28;46433;-69
2022/02/15 01:18:46;;;;;;;1090.43;999.90;;;;;;;8.76;52.81;100176.66;682107;28;115499;-69
2022/02/15 01:19:07;;;;;;;1091.50;999.90;;;;;;;8.76;52.89;100179.34;685128;28;23444;-69
2022/02/15 01:19:30;;;;;;;1097.80;999.90;;;;;;;8.75;53.01;100167.75;684718;28;45219;-69
2022/02/15 01:19:51;;;;;;;1092.70;999.90;;;;;;;8.74;53.07;100173.31;685461;28;46227;-69
2022/02/15 01:20:13;;;;;;;1095.85;999.90;;;;;;;8.75;53.01;100177.69;684688;28;22399;-69
2022/02/15 01:20:34;;;;;;;1097.95;999.90;;;;;;;8.76;52.85;100177.50;685332;28;45247;-70
2022/02/15 01:20:56;;;;;;;1096.88;999.90;;;;;;;8.77;53.02;100170.25;682921;28;22269;-69
2022/02/15 01:21:17;;;;;;;1095.47;999.90;;;;;;;8.77;53.13;100172.94;678826;29;46469;-69
2022/02/15 01:21:38;;;;;;;1096.13;999.90;;;;;;;8.77;53.17;100175.63;681446;28;21528;-69
2022/02/15 01:21:59;;;;;;;1097.35;999.90;;;;;;;8.77;53.02;100175.63;681247;28;22406;-69
2022/02/15 01:22:20;;;;;;;1091.82;999.90;;;;;;;8.77;53.19;100171.09;682649;28;24505;-69
2022/02/15 01:22:42;;;;;;;1088.35;999.90;;;;;;;8.78;52.96;100178.16;685447;28;23673;-69
2022/02/15 01:23:03;;;;;;;1088.47;999.90;;;;;;;8.77;53.48;100173.78;686806;28;46292;-69
2022/02/15 01:23:25;;;;;;;1092.35;999.90;;;;;;;8.77;53.42;100172.94;686391;28;40058;-69
2022/02/15 01:23:47;;;;;;;1093.75;999.90;;;;;;;8.78;53.33;100170.06;687455;28;23497;-69
2022/02/15 01:24:08;;;;;;;1091.78;999.90;;;;;;;8.77;53.46;100173.78;687042;28;46249;-69
2022/02/15 01:24:29;;;;;;;1089.85;999.90;;;;;;;8.79;53.27;100176.28;688151;28;23433;-69
2022/02/15 01:24:50;;;;;;;1086.38;999.90;;;;;;;8.79;53.25;100171.75;687193;28;22353;-69
2022/02/15 01:25:14;;;;;;;1089.95;999.90;;;;;;;8.79;53.25;100178.97;687705;28;23439;-70
2022/02/15 01:25:36;;;;;;;1084.93;999.90;;;;;;;8.79;53.36;100169.06;686435;28;60794;-70
2022/02/15 01:26:00;;;;;;;1084.32;999.90;;;;;;;8.79;53.46;100173.59;686218;28;23396;-70
2022/02/15 01:26:22;;;;;;;1087.65;999.90;;;;;;;8.81;53.63;100166.19;680310;28;110224;-70
2022/02/15 01:26:44;;;;;;;1076.00;999.90;;;;;;;8.80;53.42;100167.22;683364;28;45521;-70
2022/02/15 01:27:05;;;;;;;1068.00;996.90;;;;;;;8.80;53.78;100170.72;679016;29;45109;-70
2022/02/15 01:27:26;;;;;;;1061.28;990.55;;;;;;;8.81;53.81;100166.19;680621;28;23715;-70
2022/02/15 01:27:51;;;;;;;1059.88;989.42;;;;;;;8.80;53.56;100172.59;677833;28;92287;-70
2022/02/15 01:28:14;;;;;;;1059.75;989.35;;;;;;;8.79;53.84;100166.38;679005;28;69358;-70
2022/02/15 01:28:35;;;;;;;1061.30;990.88;;;;;;;8.79;53.65;100170.91;678556;29;46463;-70
2022/02/15 01:28:56;;;;;;;1050.07;980.25;;;;;;;8.77;53.77;100172.94;680188;29;22390;-70
2022/02/15 01:29:17;;;;;;;1054.32;984.40;;;;;;;8.76;54.02;100169.44;681275;28;22391;-70
2022/02/15 01:29:39;;;;;;;1042.45;973.03;;;;;;;8.75;54.15;100172.31;681433;28;21584;-70
2022/02/15 01:30:03;;;;;;;1047.50;977.78;;;;;;;8.73;54.31;100169.78;680439;28;69461;-70
2022/02/15 01:30:24;;;;;;;1052.70;982.63;;;;;;;8.72;54.30;100170.78;680950;28;14250;-70
2022/02/15 01:30:45;;;;;;;1049.80;980.00;;;;;;;8.73;54.17;100177.00;681421;28;22390;-70
2022/02/15 01:31:08;;;;;;;1049.32;979.60;;;;;;;8.71;54.25;100169.09;679688;29;21056;-70
2022/02/15 01:31:29;;;;;;;1049.80;980.00;;;;;;;8.71;54.35;100168.28;678854;28;68587;-70
2022/02/15 01:31:51;;;;;;;1044.60;975.05;;;;;;;8.69;54.41;100163.06;680410;28;46364;-69
2022/02/15 01:32:12;;;;;;;1047.15;977.47;;;;;;;8.69;54.38;100168.47;679547;28;44319;-69
2022/02/15 01:32:34;;;;;;;1051.57;981.78;;;;;;;8.71;54.27;100170.97;682857;28;22369;-69
2022/02/15 01:32:56;;;;;;;1046.45;976.78;;;;;;;8.70;54.43;100169.28;682155;28;44113;-69
2022/02/15 01:33:17;;;;;;;1048.20;978.50;;;;;;;8.69;54.46;100165.75;685002;28;23466;-70
2022/02/15 01:33:39;;;;;;;1048.75;979.03;;;;;;;8.71;54.24;100171.78;683356;28;23738;-70
2022/02/15 01:34:00;;;;;;;1053.55;983.55;;;;;;;8.72;54.57;100169.97;682504;28;67858;-69
2022/02/15 01:34:21;;;;;;;1051.40;981.58;;;;;;;8.72;54.54;100169.97;688289;28;21471;-69
2022/02/15 01:34:43;;;;;;;1049.45;979.65;;;;;;;8.72;54.17;100168.09;685072;28;22190;-70
2022/02/15 01:35:04;;;;;;;1050.40;980.60;;;;;;;8.73;54.17;100167.09;684309;28;22413;-70
2022/02/15 01:35:27;;;;;;;1051.80;981.92;;;;;;;8.73;54.43;100167.09;681964;28;46726;-70
2022/02/15 01:35:48;;;;;;;1052.93;982.83;;;;;;;8.74;54.42;100165.22;681883;28;46401;-70
2022/02/15 01:36:09;;;;;;;1056.85;986.50;;;;;;;8.72;54.61;100167.28;680613;29;22086;-70
2022/02/15 01:36:30;;;;;;;1059.90;989.53;;;;;;;8.72;54.65;100164.56;680458;28;22406;-70
2022/02/15 01:36:52;;;;;;;1056.37;986.10;;;;;;;8.73;54.44;100168.94;680900;28;21607;-70
2022/02/15 01:37:20;;;;;;;1056.13;985.83;;;;;;;8.72;54.80;100170.78;681627;28;95692;-70
2022/02/15 01:37:41;;;;;;;1055.18;984.95;;;;;;;8.72;54.54;100172.66;683863;28;21444;-70